createdAt,value
2018-10-02T00:02:17.373Z,15.23
2018-10-02T00:04:47.176Z,16.80
2018-10-02T00:07:15.964Z,15.80
2018-10-02T00:09:45.396Z,17.37
2018-10-02T00:12:19.133Z,20.40
2018-10-02T00:14:47.851Z,15.27
2018-10-02T00:17:16.321Z,14.60
2018-10-02T00:19:45.583Z,19.50
2018-10-02T00:22:14.403Z,11.93
2018-10-02T00:24:43.083Z,14.83
2018-10-02T00:27:11.809Z,10.23
2018-10-02T00:29:41.404Z,14.40
2018-10-02T00:32:10.182Z,12.73
2018-10-02T00:34:38.631Z,11.07
2018-10-02T00:37:07.489Z,9.77
2018-10-02T00:39:36.207Z,6.70
2018-10-02T00:42:05.317Z,5.33
2018-10-02T00:44:34.337Z,5.70
2018-10-02T00:47:03.099Z,7.07
2018-10-02T00:49:31.942Z,4.23
2018-10-02T00:52:01.119Z,7.70
2018-10-02T00:54:29.898Z,5.00
2018-10-02T00:56:58.926Z,4.33
2018-10-02T00:59:27.378Z,5.27
2018-10-02T01:01:56.370Z,3.23
2018-10-02T01:04:24.885Z,4.47
2018-10-02T01:06:53.596Z,5.10
2018-10-02T01:09:22.804Z,6.70
2018-10-02T01:11:52.263Z,3.70
2018-10-02T01:14:21.382Z,6.40
2018-10-02T01:16:49.898Z,4.87
2018-10-02T01:19:18.449Z,4.90
2018-10-02T01:21:46.911Z,4.27
2018-10-02T01:24:16.353Z,3.13
2018-10-02T01:26:44.785Z,5.80
2018-10-02T01:29:13.317Z,4.10
2018-10-02T01:31:41.763Z,6.10
2018-10-02T01:34:10.295Z,4.97
2018-10-02T01:36:38.817Z,5.00
2018-10-02T01:39:07.762Z,13.00
2018-10-02T01:41:36.633Z,17.37
2018-10-02T01:44:05.139Z,11.27
2018-10-02T01:46:33.810Z,8.33
2018-10-02T01:49:02.255Z,8.50
2018-10-02T01:51:30.726Z,11.23
2018-10-02T01:53:59.522Z,12.40
2018-10-02T01:56:28.104Z,9.77
2018-10-02T01:58:56.556Z,13.97
2018-10-02T02:01:25.298Z,15.10
2018-10-02T02:03:53.764Z,10.53
2018-10-02T02:06:22.244Z,9.37
2018-10-02T02:08:50.667Z,10.43
2018-10-02T02:11:19.407Z,10.20
2018-10-02T02:13:48.160Z,14.80
2018-10-02T02:16:16.936Z,12.73
2018-10-02T02:18:45.396Z,11.07
2018-10-02T02:21:13.870Z,15.63
2018-10-02T02:23:42.286Z,14.33
2018-10-02T02:26:10.733Z,17.53
2018-10-02T02:28:39.119Z,19.73
2018-10-02T02:31:07.650Z,16.47
2018-10-02T02:33:36.156Z,15.53
2018-10-02T02:36:04.853Z,18.50
2018-10-02T02:38:33.405Z,14.90
2018-10-02T02:41:01.876Z,15.63
2018-10-02T02:43:30.335Z,14.70
2018-10-02T02:45:58.916Z,16.80
2018-10-02T02:48:32.813Z,12.90
2018-10-02T02:51:33.109Z,15.37
2018-10-02T02:54:03.855Z,15.30
2018-10-02T02:56:32.336Z,11.10
2018-10-02T02:59:01.606Z,14.23
2018-10-02T03:01:30.503Z,11.47
2018-10-02T03:03:59.277Z,14.20
2018-10-02T03:06:27.842Z,11.83
2018-10-02T03:08:56.580Z,14.53
2018-10-02T03:11:25.047Z,12.93
2018-10-02T03:13:53.522Z,11.97
2018-10-02T03:16:22.034Z,12.77
2018-10-02T03:18:50.442Z,12.03
2018-10-02T03:21:19.598Z,11.50
2018-10-02T03:23:48.044Z,14.47
2018-10-02T03:26:16.522Z,15.57
2018-10-02T03:28:44.978Z,14.10
2018-10-02T03:31:13.474Z,19.27
2018-10-02T03:33:41.952Z,13.90
2018-10-02T03:36:10.444Z,10.93
2018-10-02T03:38:39.174Z,14.43
2018-10-02T03:41:07.739Z,16.17
2018-10-02T03:43:36.263Z,14.83
2018-10-02T03:46:04.872Z,17.40
2018-10-02T03:48:33.335Z,20.03
2018-10-02T03:51:02.144Z,15.10
2018-10-02T03:53:30.601Z,13.73
2018-10-02T03:55:59.097Z,17.10
2018-10-02T03:58:27.577Z,18.83
2018-10-02T04:00:56.048Z,15.77
2018-10-02T04:03:25.104Z,19.30
2018-10-02T04:05:53.573Z,15.90
2018-10-02T04:08:22.069Z,22.50
2018-10-02T04:10:50.526Z,23.33
2018-10-02T04:13:19.015Z,18.40
2018-10-02T04:15:47.461Z,18.20
2018-10-02T04:18:15.949Z,16.60
2018-10-02T04:20:44.410Z,22.97
2018-10-02T04:23:12.966Z,16.53
2018-10-02T04:25:41.448Z,13.10
2018-10-02T04:28:10.195Z,10.83
2018-10-02T04:30:38.924Z,15.00
2018-10-02T04:33:07.702Z,17.80
2018-10-02T04:35:36.157Z,15.03
2018-10-02T04:38:04.612Z,15.33
2018-10-02T04:40:33.084Z,17.80
2018-10-02T04:43:01.534Z,16.57
2018-10-02T04:45:29.998Z,18.87
2018-10-02T04:47:58.415Z,11.53
2018-10-02T04:50:26.853Z,15.33
2018-10-02T04:52:56.503Z,9.73
2018-10-02T04:55:25.563Z,14.23
2018-10-02T04:57:54.123Z,13.23
2018-10-02T05:00:22.585Z,20.73
2018-10-02T05:02:51.187Z,13.70
2018-10-02T05:05:19.745Z,12.70
2018-10-02T05:07:48.850Z,16.00
2018-10-02T05:10:18.250Z,10.10
2018-10-02T05:12:46.788Z,11.70
2018-10-02T05:15:15.852Z,7.83
2018-10-02T05:17:44.319Z,8.23
2018-10-02T05:20:13.081Z,11.63
2018-10-02T05:22:41.630Z,14.13
2018-10-02T05:25:11.209Z,8.03
2018-10-02T05:27:40.307Z,11.67
2018-10-02T05:30:09.320Z,8.83
2018-10-02T05:32:38.261Z,9.23
2018-10-02T05:35:07.028Z,9.30
2018-10-02T05:37:36.265Z,8.77
2018-10-02T05:40:05.429Z,8.87
2018-10-02T05:42:34.670Z,8.30
2018-10-02T05:45:04.224Z,11.47
2018-10-02T05:47:33.265Z,11.67
2018-10-02T05:50:02.069Z,7.80
2018-10-02T05:52:30.645Z,7.00
2018-10-02T05:55:00.291Z,12.20
2018-10-02T05:57:29.182Z,10.33
2018-10-02T05:59:58.561Z,9.20
2018-10-02T06:02:29.869Z,10.07
2018-10-02T06:04:58.762Z,12.70
2018-10-02T06:07:27.777Z,8.23
2018-10-02T06:09:57.052Z,10.50
2018-10-02T06:12:26.139Z,10.27
2018-10-02T06:14:54.962Z,12.20
2018-10-02T06:17:23.686Z,12.37
2018-10-02T06:19:53.158Z,9.97
2018-10-02T06:22:21.643Z,12.80
2018-10-02T06:24:51.074Z,10.30
2018-10-02T06:27:20.101Z,11.40
2018-10-02T06:29:49.014Z,11.60
2018-10-02T06:32:18.233Z,27.67
2018-10-02T06:34:47.337Z,16.40
2018-10-02T06:37:15.821Z,14.47
2018-10-02T06:39:44.924Z,13.73
2018-10-02T06:42:13.613Z,14.93
2018-10-02T06:44:42.694Z,8.63
2018-10-02T06:47:12.122Z,29.00
2018-10-02T06:49:41.507Z,12.90
2018-10-02T06:52:10.467Z,20.10
2018-10-02T06:54:39.429Z,14.10
2018-10-02T06:57:08.924Z,15.90
2018-10-02T06:59:38.844Z,15.33
2018-10-02T07:02:07.572Z,19.63
2018-10-02T07:04:36.288Z,11.10
2018-10-02T07:07:05.018Z,12.97
2018-10-02T07:09:33.970Z,17.10
2018-10-02T07:12:02.724Z,14.10
2018-10-02T07:14:31.618Z,16.10
2018-10-02T07:17:00.692Z,14.20
2018-10-02T07:19:29.250Z,14.70
2018-10-02T07:21:58.180Z,13.73
2018-10-02T07:24:26.892Z,14.13
2018-10-02T07:26:56.313Z,17.67
2018-10-02T07:29:25.276Z,32.20
2018-10-02T07:31:54.008Z,14.73
2018-10-02T07:34:23.724Z,18.40
2018-10-02T07:36:52.812Z,16.03
2018-10-02T07:39:21.240Z,18.13
2018-10-02T07:41:49.724Z,16.07
2018-10-02T07:44:18.605Z,15.40
2018-10-02T07:46:47.187Z,14.23
2018-10-02T07:49:15.623Z,17.10
2018-10-02T07:51:44.181Z,13.23
2018-10-02T07:54:12.663Z,13.67
2018-10-02T07:56:41.555Z,12.77
2018-10-02T07:59:10.340Z,15.57
2018-10-02T08:01:39.336Z,15.43
2018-10-02T08:04:07.881Z,17.50
2018-10-02T08:06:36.388Z,20.70
2018-10-02T08:09:08.018Z,12.90
2018-10-02T08:11:36.560Z,12.93
2018-10-02T08:14:05.503Z,26.37
2018-10-02T08:16:34.275Z,35.80
2018-10-02T08:19:02.829Z,16.03
2018-10-02T08:21:31.673Z,29.30
2018-10-02T08:24:00.167Z,21.70
2018-10-02T08:26:28.706Z,21.30
2018-10-02T08:28:57.538Z,29.83
2018-10-02T08:31:26.153Z,30.40
2018-10-02T08:33:55.022Z,18.00
2018-10-02T08:36:23.485Z,17.90
2018-10-02T08:38:52.025Z,23.33
2018-10-02T08:41:21.109Z,17.50
2018-10-02T08:43:49.689Z,22.17
2018-10-02T08:46:18.117Z,15.87
2018-10-02T08:48:47.398Z,13.53
2018-10-02T08:51:16.146Z,22.77
2018-10-02T08:53:45.638Z,18.40
2018-10-02T08:56:14.151Z,16.13
2018-10-02T08:58:42.922Z,45.13
2018-10-02T09:01:11.747Z,28.10
2018-10-02T09:03:40.230Z,17.87
2018-10-02T09:06:09.318Z,19.33
2018-10-02T09:08:38.019Z,25.53
2018-10-02T09:11:07.098Z,28.30
2018-10-02T09:13:35.962Z,26.87
2018-10-02T09:16:05.064Z,23.83
2018-10-02T09:18:34.394Z,23.83
2018-10-02T09:21:03.414Z,26.00
2018-10-02T09:23:32.268Z,19.60
2018-10-02T09:26:00.965Z,22.43
2018-10-02T09:28:30.061Z,23.83
2018-10-02T09:31:04.529Z,18.23
2018-10-02T09:33:38.786Z,24.00
2018-10-02T09:36:12.792Z,24.03
2018-10-02T09:39:45.283Z,21.90
2018-10-02T09:42:19.305Z,25.03
2018-10-02T09:44:48.072Z,22.67
2018-10-02T09:47:17.000Z,17.13
2018-10-02T09:49:45.567Z,23.33
2018-10-02T09:52:14.172Z,19.47
2018-10-02T09:54:43.103Z,28.73
2018-10-02T09:57:12.364Z,20.70
2018-10-02T09:59:41.184Z,21.03
2018-10-02T10:02:21.857Z,25.20
2018-10-02T10:04:50.435Z,18.43
2018-10-02T10:07:19.405Z,14.13
2018-10-02T10:09:53.351Z,14.37
2018-10-02T10:12:22.238Z,15.83
2018-10-02T10:14:51.529Z,14.40
2018-10-02T10:17:20.343Z,12.70
2018-10-02T10:19:49.306Z,17.10
2018-10-02T10:22:18.066Z,13.63
2018-10-02T10:24:48.480Z,13.53
2018-10-02T10:27:17.441Z,21.60
2018-10-02T10:29:45.922Z,12.33
2018-10-02T10:32:14.723Z,23.63
2018-10-02T10:34:43.444Z,17.87
2018-10-02T10:37:11.985Z,12.23
2018-10-02T10:39:40.942Z,11.90
2018-10-02T10:42:09.774Z,13.93
2018-10-02T10:44:38.675Z,17.67
2018-10-02T10:47:07.440Z,14.73
2018-10-02T10:49:36.664Z,11.40
2018-10-02T10:52:05.183Z,11.77
2018-10-02T10:54:33.727Z,11.63
2018-10-02T10:57:02.315Z,7.07
2018-10-02T10:59:30.804Z,11.20
2018-10-02T11:02:00.128Z,11.87
2018-10-02T11:04:29.153Z,11.77
2018-10-02T11:06:58.210Z,6.00
2018-10-02T11:09:26.973Z,6.63
2018-10-02T11:11:56.052Z,7.17
2018-10-02T11:14:24.968Z,8.27
2018-10-02T11:16:54.035Z,8.30
2018-10-02T11:19:22.751Z,5.97
2018-10-02T11:21:51.473Z,9.87
2018-10-02T11:24:19.989Z,7.03
2018-10-02T11:26:48.561Z,7.13
2018-10-02T11:29:17.047Z,12.43
2018-10-02T11:31:46.564Z,5.10
2018-10-02T11:34:15.026Z,8.90
2018-10-02T11:36:43.466Z,7.23
2018-10-02T11:39:12.013Z,4.93
2018-10-02T11:41:40.501Z,7.90
2018-10-02T11:44:09.086Z,6.17
2018-10-02T11:46:37.512Z,8.07
2018-10-02T11:49:06.122Z,4.57
2018-10-02T11:51:34.604Z,8.33
2018-10-02T11:54:03.112Z,8.63
2018-10-02T11:56:31.607Z,13.80
2018-10-02T11:59:00.162Z,4.97
2018-10-02T12:01:29.250Z,13.43
2018-10-02T12:03:57.633Z,4.03
2018-10-02T12:06:26.198Z,5.17
2018-10-02T12:08:54.793Z,6.93
2018-10-02T12:11:23.919Z,7.80
2018-10-02T12:13:53.635Z,4.00
2018-10-02T12:16:22.022Z,6.00
2018-10-02T12:18:50.585Z,7.17
2018-10-02T12:21:19.062Z,6.63
2018-10-02T12:23:47.695Z,6.80
2018-10-02T12:26:16.201Z,4.47
2018-10-02T12:28:44.675Z,7.70
2018-10-02T12:31:13.324Z,7.30
2018-10-02T12:33:41.822Z,6.03
2018-10-02T12:36:10.273Z,4.47
2018-10-02T12:38:38.811Z,3.67
2018-10-02T12:41:07.325Z,8.33
2018-10-02T12:43:35.773Z,4.40
2018-10-02T12:46:04.274Z,10.40
2018-10-02T12:48:32.858Z,4.23
2018-10-02T12:51:01.392Z,11.60
2018-10-02T12:53:29.997Z,9.83
2018-10-02T12:55:58.447Z,6.10
2018-10-02T12:58:27.319Z,6.53
2018-10-02T13:00:57.261Z,4.43
2018-10-02T13:03:25.730Z,4.83
2018-10-02T13:05:54.222Z,3.00
2018-10-02T13:08:22.745Z,6.80
2018-10-02T13:10:51.316Z,3.90
2018-10-02T13:13:19.927Z,6.73
2018-10-02T13:15:48.692Z,8.50
2018-10-02T13:18:17.794Z,5.50
2018-10-02T13:20:46.258Z,6.50
2018-10-02T13:23:14.980Z,2.90
2018-10-02T13:25:43.510Z,2.63
2018-10-02T13:28:12.126Z,5.57
2018-10-02T13:30:40.632Z,4.43
2018-10-02T13:33:09.126Z,5.80
2018-10-02T13:35:37.938Z,8.90
2018-10-02T13:38:06.580Z,4.23
2018-10-02T13:40:35.203Z,4.50
2018-10-02T13:43:03.811Z,4.53
2018-10-02T13:45:32.285Z,6.27
2018-10-02T13:48:00.727Z,2.73
2018-10-02T13:50:29.253Z,6.27
2018-10-02T13:52:57.733Z,8.83
2018-10-02T13:55:26.238Z,10.93
2018-10-02T13:57:54.945Z,3.70
2018-10-02T14:00:23.421Z,7.77
2018-10-02T14:02:51.879Z,4.70
2018-10-02T14:05:20.452Z,4.97
2018-10-02T14:07:49.033Z,4.53
2018-10-02T14:10:17.598Z,6.40
2018-10-02T14:12:45.999Z,9.00
2018-10-02T14:15:14.494Z,3.07
2018-10-02T14:17:42.916Z,5.43
2018-10-02T14:20:11.314Z,2.53
2018-10-02T14:22:39.747Z,11.40
2018-10-02T14:25:08.850Z,4.33
2018-10-02T14:27:37.267Z,5.43
2018-10-02T14:30:05.731Z,3.53
2018-10-02T14:32:34.144Z,4.70
2018-10-02T14:35:03.103Z,4.83
2018-10-02T14:37:31.501Z,5.10
2018-10-02T14:39:59.940Z,1.97
2018-10-02T14:42:28.454Z,3.63
2018-10-02T14:44:56.865Z,2.57
2018-10-02T14:47:25.387Z,2.63
2018-10-02T14:49:53.848Z,4.83
2018-10-02T14:52:22.329Z,4.10
2018-10-02T14:54:50.872Z,2.10
2018-10-02T14:57:20.257Z,5.90
2018-10-02T14:59:48.673Z,1.83
2018-10-02T15:02:17.327Z,3.50
2018-10-02T15:04:45.865Z,2.90
2018-10-02T15:07:14.404Z,12.33
2018-10-02T15:09:42.922Z,8.20
2018-10-02T15:12:11.391Z,5.17
2018-10-02T15:14:39.894Z,6.73
2018-10-02T15:17:08.472Z,5.53
2018-10-02T15:19:36.937Z,3.70
2018-10-02T15:22:05.406Z,3.17
2018-10-02T15:24:33.904Z,3.47
2018-10-02T15:27:02.347Z,2.23
2018-10-02T15:29:30.803Z,4.40
2018-10-02T15:31:59.333Z,2.37
2018-10-02T15:34:27.814Z,7.43
2018-10-02T15:36:56.224Z,4.03
2018-10-02T15:39:24.631Z,4.20
2018-10-02T15:41:53.121Z,5.07
2018-10-02T15:44:21.694Z,4.23
2018-10-02T15:46:50.105Z,3.50
2018-10-02T15:49:18.568Z,15.40
2018-10-02T15:51:47.014Z,4.43
2018-10-02T15:54:15.440Z,2.23
2018-10-02T15:56:43.879Z,5.63
2018-10-02T15:59:12.291Z,4.03
2018-10-02T16:01:40.679Z,3.27
2018-10-02T16:04:09.160Z,3.70
2018-10-02T16:06:37.590Z,1.90
2018-10-02T16:09:06.782Z,5.40
2018-10-02T16:11:35.291Z,11.53
2018-10-02T16:14:03.984Z,2.60
2018-10-02T16:16:33.417Z,4.23
2018-10-02T16:19:02.005Z,3.57
2018-10-02T16:21:30.554Z,3.03
2018-10-02T16:23:59.032Z,4.20
2018-10-02T16:26:27.491Z,6.17
2018-10-02T16:28:56.061Z,8.30
2018-10-02T16:31:24.587Z,6.00
2018-10-02T16:33:53.157Z,6.37
2018-10-02T16:36:21.697Z,5.43
2018-10-02T16:38:50.085Z,7.10
2018-10-02T16:41:18.523Z,14.20
2018-10-02T16:43:47.325Z,12.60
2018-10-02T16:46:15.811Z,7.70
2018-10-02T16:48:44.265Z,6.50
2018-10-02T16:51:12.737Z,5.17
2018-10-02T16:53:41.237Z,7.90
2018-10-02T16:56:09.734Z,6.33
2018-10-02T17:01:12.405Z,8.73
2018-10-02T17:03:41.135Z,9.47
2018-10-02T17:06:09.557Z,8.30
2018-10-02T17:08:37.988Z,7.73
2018-10-02T17:11:06.500Z,5.60
2018-10-02T17:13:35.326Z,3.43
2018-10-02T17:16:04.080Z,4.47
2018-10-02T17:18:32.964Z,7.27
2018-10-02T17:21:01.387Z,5.80
2018-10-02T17:23:30.199Z,7.13
2018-10-02T17:25:58.866Z,2.33
2018-10-02T17:28:27.361Z,3.50
2018-10-02T17:30:55.814Z,8.87
2018-10-02T17:33:24.562Z,12.27
2018-10-02T17:35:53.031Z,7.60
2018-10-02T17:38:21.895Z,12.43
2018-10-02T17:40:50.375Z,10.30
2018-10-02T17:43:18.965Z,9.77
2018-10-02T17:45:48.067Z,5.83
2018-10-02T17:48:16.585Z,3.13
2018-10-02T17:50:45.869Z,5.37
2018-10-02T17:53:14.431Z,3.00
2018-10-02T17:55:43.042Z,3.23
2018-10-02T17:58:11.759Z,4.53
2018-10-02T18:00:41.037Z,10.23
2018-10-02T18:03:10.599Z,3.17
2018-10-02T18:05:39.853Z,7.87
2018-10-02T18:08:09.566Z,4.17
2018-10-02T18:10:38.248Z,3.60
2018-10-02T18:13:07.672Z,4.30
2018-10-02T18:15:36.194Z,7.27
2018-10-02T18:18:04.729Z,4.20
2018-10-02T18:20:33.160Z,5.10
2018-10-02T18:23:02.306Z,4.40
2018-10-02T18:25:31.124Z,10.43
2018-10-02T18:27:59.977Z,8.83
2018-10-02T18:30:28.798Z,5.10
2018-10-02T18:32:57.305Z,5.93
2018-10-02T18:35:25.833Z,5.97
2018-10-02T18:37:54.609Z,7.73
2018-10-02T18:40:23.084Z,6.97
2018-10-02T18:42:51.619Z,8.50
2018-10-02T18:45:20.178Z,6.10
2018-10-02T18:47:48.692Z,5.33
2018-10-02T18:50:17.360Z,5.10
2018-10-02T18:52:46.102Z,4.20
2018-10-02T18:55:14.739Z,10.10
2018-10-02T18:57:43.540Z,6.27
2018-10-02T19:00:12.424Z,3.00
2018-10-02T19:02:41.204Z,3.37
2018-10-02T19:05:09.936Z,5.13
2018-10-02T19:07:39.342Z,5.23
2018-10-02T19:10:08.120Z,4.97
2018-10-02T19:12:36.716Z,7.30
2018-10-02T19:15:05.610Z,6.30
2018-10-02T19:17:34.244Z,12.43
2018-10-02T19:20:08.100Z,8.77
2018-10-02T19:22:36.550Z,3.83
2018-10-02T19:25:10.426Z,4.27
2018-10-02T19:27:38.942Z,5.90
2018-10-02T19:30:12.699Z,4.60
2018-10-02T19:32:41.304Z,6.50
2018-10-02T19:35:09.888Z,5.03
2018-10-02T19:37:43.974Z,3.50
2018-10-02T19:40:13.831Z,13.07
2018-10-02T19:42:42.825Z,4.13
2018-10-02T19:45:16.930Z,4.63
2018-10-02T19:47:45.823Z,3.90
2018-10-02T19:50:14.401Z,5.00
2018-10-02T19:52:43.038Z,2.80
2018-10-02T19:55:12.002Z,2.67
2018-10-02T19:57:40.768Z,4.07
2018-10-02T20:00:09.390Z,4.50
2018-10-02T20:02:38.037Z,5.50
2018-10-02T20:05:07.473Z,10.20
2018-10-02T20:07:36.100Z,4.07
2018-10-02T20:10:04.926Z,6.20
2018-10-02T20:12:33.459Z,3.47
2018-10-02T20:15:02.006Z,3.87
2018-10-02T20:17:30.819Z,6.57
2018-10-02T20:19:59.273Z,6.30
2018-10-02T20:22:27.853Z,5.60
2018-10-02T20:24:56.310Z,4.00
2018-10-02T20:27:24.948Z,7.50
2018-10-02T20:29:53.343Z,5.73
2018-10-02T20:32:21.873Z,5.13
2018-10-02T20:34:50.388Z,2.83
2018-10-02T20:37:18.902Z,6.03
2018-10-02T20:39:47.426Z,5.70
2018-10-02T20:42:15.954Z,7.43
2018-10-02T20:44:44.433Z,2.60
2018-10-02T20:47:12.909Z,5.83
2018-10-02T20:49:41.540Z,4.57
2018-10-02T20:52:10.042Z,5.37
2018-10-02T20:54:38.658Z,7.10
2018-10-02T20:57:07.265Z,3.27
2018-10-02T20:59:35.833Z,5.00
2018-10-02T21:02:04.539Z,5.73
2018-10-02T21:04:33.073Z,6.03
2018-10-02T21:07:01.909Z,4.40
2018-10-02T21:09:30.377Z,6.27
2018-10-02T21:11:58.799Z,5.10
2018-10-02T21:14:27.259Z,4.80
2018-10-02T21:16:55.715Z,4.30
2018-10-02T21:19:24.627Z,3.40
2018-10-02T21:21:53.093Z,5.80
2018-10-02T21:24:21.561Z,3.80
2018-10-02T21:26:50.045Z,3.07
2018-10-02T21:29:18.598Z,4.80
2018-10-02T21:31:47.075Z,4.90
2018-10-02T21:34:15.468Z,6.83
2018-10-02T21:36:43.949Z,6.73
2018-10-02T21:39:12.392Z,4.73
2018-10-02T21:41:40.853Z,4.30
2018-10-02T21:44:09.414Z,10.07
2018-10-02T21:46:37.956Z,4.10
2018-10-02T21:49:06.834Z,3.03
2018-10-02T21:51:35.276Z,6.73
2018-10-02T21:54:03.731Z,3.73
2018-10-02T21:56:32.166Z,9.87
2018-10-02T21:59:00.668Z,5.50
2018-10-02T22:01:31.820Z,5.70
2018-10-02T22:04:00.358Z,4.17
2018-10-02T22:06:28.748Z,4.07
2018-10-02T22:08:57.161Z,4.03
2018-10-02T22:11:25.616Z,8.37
2018-10-02T22:13:54.179Z,3.80
2018-10-02T22:16:22.689Z,2.90
2018-10-02T22:18:51.083Z,7.53
2018-10-02T22:21:19.582Z,3.53
2018-10-02T22:23:48.027Z,3.53
2018-10-02T22:26:16.413Z,2.60
2018-10-02T22:28:45.065Z,5.93
2018-10-02T22:31:13.589Z,4.00
2018-10-02T22:33:42.120Z,3.83
2018-10-02T22:36:10.611Z,5.50
2018-10-02T22:38:38.989Z,4.80
2018-10-02T22:41:07.448Z,5.60
2018-10-02T22:43:35.873Z,3.90
2018-10-02T22:46:04.722Z,4.93
2018-10-02T22:48:33.141Z,5.87
2018-10-02T22:51:01.753Z,6.43
2018-10-02T22:53:30.229Z,10.00
2018-10-02T22:55:58.819Z,3.70
2018-10-02T22:58:27.456Z,3.00
2018-10-02T23:00:55.958Z,7.60
2018-10-02T23:03:24.353Z,5.40
2018-10-02T23:05:53.110Z,9.43
2018-10-02T23:08:21.512Z,6.00
2018-10-02T23:10:49.948Z,4.87
2018-10-02T23:13:18.399Z,6.60
2018-10-02T23:15:46.833Z,3.50
2018-10-02T23:18:15.251Z,5.60
2018-10-02T23:20:43.677Z,4.70
2018-10-02T23:23:12.091Z,5.00
2018-10-02T23:25:40.501Z,6.77
2018-10-02T23:28:09.048Z,6.70
2018-10-02T23:30:37.447Z,5.83
2018-10-02T23:33:06.047Z,7.30
2018-10-02T23:35:34.564Z,10.57
2018-10-02T23:38:03.026Z,3.87
2018-10-02T23:40:31.437Z,5.37
2018-10-02T23:42:59.950Z,2.97
2018-10-02T23:45:28.390Z,3.87
2018-10-02T23:47:56.900Z,5.97
2018-10-02T23:50:25.574Z,8.17
2018-10-02T23:52:54.082Z,3.43
2018-10-02T23:55:22.479Z,6.93
2018-10-02T23:57:50.903Z,11.73
